Time;durP1;ratioP1;P1;durP2;ratioP2;P2;SDS_P1;SDS_P2;PMS_P1;PMS_P2;Temp;Humidity;BMP_temperature;BMP_pressure;BME280_temperature;BME280_humidity;BME280_pressure;Samples;Min_cycle;Max_cycle;Signal;HPM_P1;HPM_P2
2023/06/19 00:01:18;;;;;;;10.87;7.90;;;20.80;99.90;;;;;;5013704;28;20197;-53
2023/06/19 00:03:44;;;;;;;11.57;7.67;;;20.70;99.90;;;;;;5013290;28;20424;-53
2023/06/19 00:06:12;;;;;;;9.37;7.43;;;20.80;99.90;;;;;;5013657;28;20218;-52
2023/06/19 00:08:37;;;;;;;9.57;7.43;;;20.80;99.90;;;;;;5013860;28;20219;-53
2023/06/19 00:11:03;;;;;;;8.30;7.50;;;20.80;99.90;;;;;;5013365;28;20897;-53
2023/06/19 00:13:29;;;;;;;8.90;7.60;;;20.80;99.90;;;;;;5013321;28;20197;-53
2023/06/19 00:15:55;;;;;;;8.90;8.00;;;20.80;99.90;;;;;;5013463;28;20185;-53
2023/06/19 00:18:20;;;;;;;9.00;7.37;;;20.70;99.90;;;;;;5013604;28;20185;-53
2023/06/19 00:20:46;;;;;;;8.20;7.40;;;20.70;99.90;;;;;;5013442;28;20245;-53
2023/06/19 00:23:14;;;;;;;7.97;7.27;;;20.70;99.90;;;;;;5012915;28;20612;-52
2023/06/19 00:25:44;;;;;;;8.60;7.73;;;20.60;99.90;;;;;;5013244;28;20721;-53
2023/06/19 00:28:11;;;;;;;10.70;8.00;;;20.60;99.90;;;;;;5013300;28;20524;-53
2023/06/19 00:30:37;;;;;;;8.60;7.30;;;20.60;99.90;;;;;;5013321;28;20425;-53
2023/06/19 00:33:03;;;;;;;9.33;8.20;;;20.60;99.90;;;;;;5013294;28;20827;-53
2023/06/19 00:35:29;;;;;;;8.70;7.47;;;20.60;99.90;;;;;;5013100;28;20419;-53
2023/06/19 00:37:54;;;;;;;9.87;8.70;;;20.60;99.90;;;;;;5013800;28;20657;-53
2023/06/19 00:40:28;;;;;;;9.00;7.57;;;20.70;99.90;;;;;;5013175;28;20186;-53
2023/06/19 00:42:54;;;;;;;13.90;8.60;;;20.70;99.90;;;;;;5013360;28;20749;-53
2023/06/19 00:45:20;;;;;;;8.97;8.07;;;20.70;99.90;;;;;;5012853;28;20446;-53
2023/06/19 00:47:45;;;;;;;8.47;7.67;;;20.70;99.90;;;;;;5013112;28;20214;-53
2023/06/19 00:50:11;;;;;;;10.57;8.10;;;20.80;99.90;;;;;;5012986;28;20268;-53
2023/06/19 00:52:37;;;;;;;10.80;8.30;;;20.80;99.90;;;;;;5012578;28;20246;-53
2023/06/19 00:55:05;;;;;;;9.07;7.63;;;20.80;99.90;;;;;;5012975;28;20479;-53
2023/06/19 00:57:31;;;;;;;8.27;7.37;;;20.80;99.90;;;;;;5012570;28;20238;-53
2023/06/19 00:59:57;;;;;;;8.80;8.00;;;20.80;99.90;;;;;;5012715;28;20430;-53
2023/06/19 01:02:23;;;;;;;9.87;8.10;;;20.70;99.90;;;;;;5012748;28;20803;-53
2023/06/19 01:04:51;;;;;;;9.30;8.30;;;20.70;99.90;;;;;;5012480;28;20435;-53
2023/06/19 01:07:27;;;;;;;9.70;8.40;;;20.70;99.90;;;;;;5012257;28;20354;-53
2023/06/19 01:09:58;;;;;;;10.53;8.63;;;20.80;99.90;;;;;;5012603;28;20421;-53
2023/06/19 01:12:38;;;;;;;11.53;8.63;;;20.70;99.90;;;;;;5012783;28;20513;-53
2023/06/19 01:15:05;;;;;;;9.47;8.03;;;20.70;99.90;;;;;;5012778;28;20414;-53
2023/06/19 01:17:32;;;;;;;10.00;8.93;;;20.60;99.90;;;;;;5012021;28;20426;-53
2023/06/19 01:19:58;;;;;;;13.43;8.73;;;20.60;99.90;;;;;;5012776;28;20449;-53
2023/06/19 01:22:28;;;;;;;11.63;9.00;;;20.60;99.90;;;;;;5012713;28;20428;-53
2023/06/19 01:24:54;;;;;;;9.13;8.23;;;20.60;99.90;;;;;;5012400;28;20427;-52
2023/06/19 01:27:20;;;;;;;9.63;8.70;;;20.70;99.90;;;;;;5012235;28;20562;-53
2023/06/19 01:29:46;;;;;;;11.83;8.40;;;20.60;99.90;;;;;;5012199;28;20632;-53
2023/06/19 01:32:19;;;;;;;8.97;8.10;;;20.60;99.90;;;;;;5012360;28;20524;-53
2023/06/19 01:34:46;;;;;;;8.70;7.80;;;20.60;99.90;;;;;;5012077;28;20174;-53
2023/06/19 01:37:12;;;;;;;9.57;8.67;;;20.50;99.90;;;;;;5012439;28;20830;-53
2023/06/19 01:39:40;;;;;;;9.93;8.93;;;20.50;99.90;;;;;;5012228;28;20438;-53
2023/06/19 01:42:09;;;;;;;9.60;8.53;;;20.50;99.90;;;;;;5012216;28;20427;-53
2023/06/19 01:44:35;;;;;;;9.63;8.73;;;20.50;99.90;;;;;;5012200;28;20434;-53
2023/06/19 01:47:11;;;;;;;10.10;8.70;;;20.50;99.90;;;;;;5012351;28;20485;-52
2023/06/19 01:49:37;;;;;;;9.97;8.87;;;20.50;99.90;;;;;;5012226;28;20513;-53
2023/06/19 01:52:03;;;;;;;10.37;8.83;;;20.50;99.90;;;;;;5011973;28;20525;-53
2023/06/19 01:54:29;;;;;;;10.03;9.00;;;20.60;99.90;;;;;;5012265;28;20431;-52
2023/06/19 01:56:55;;;;;;;9.73;8.80;;;20.50;99.90;;;;;;5012210;28;20453;-53
2023/06/19 01:59:21;;;;;;;10.10;9.07;;;20.50;99.90;;;;;;5012079;28;20605;-53
2023/06/19 02:01:46;;;;;;;9.00;8.10;;;20.50;99.90;;;;;;5012158;28;20646;-53
2023/06/19 02:04:12;;;;;;;10.17;9.10;;;20.50;99.90;;;;;;5011759;28;20634;-53
2023/06/19 02:06:37;;;;;;;9.90;9.00;;;20.50;99.90;;;;;;5011989;28;20236;-53
2023/06/19 02:09:03;;;;;;;10.77;9.60;;;20.40;99.90;;;;;;5012014;28;20184;-53
2023/06/19 02:11:29;;;;;;;10.53;9.00;;;20.40;99.90;;;;;;5011927;28;20210;-52
2023/06/19 02:13:54;;;;;;;10.83;9.77;;;20.30;99.90;;;;;;5012082;28;20189;-53
2023/06/19 02:16:20;;;;;;;9.43;8.43;;;20.30;99.90;;;;;;5011632;28;20667;-53
2023/06/19 02:18:45;;;;;;;12.73;9.40;;;20.30;99.90;;;;;;5012176;28;20278;-53
2023/06/19 02:21:11;;;;;;;11.57;9.87;;;20.30;99.90;;;;;;5014918;28;20587;-53
2023/06/19 02:23:36;;;;;;;10.73;9.63;;;20.30;99.90;;;;;;5015386;28;20237;-53
2023/06/19 02:26:03;;;;;;;10.77;9.77;;;20.30;99.90;;;;;;5015259;28;20188;-53
2023/06/19 02:28:28;;;;;;;13.83;9.70;;;20.30;99.90;;;;;;5015795;28;20189;-53
2023/06/19 02:30:54;;;;;;;12.63;9.67;;;20.30;99.90;;;;;;5015345;28;20426;-53
2023/06/19 02:33:20;;;;;;;11.60;9.80;;;20.20;99.90;;;;;;5015307;28;20223;-53
2023/06/19 02:35:45;;;;;;;10.17;9.27;;;20.20;99.90;;;;;;5015125;28;20230;-53
2023/06/19 02:38:14;;;;;;;11.50;9.03;;;20.20;99.90;;;;;;5015085;28;20187;-53
2023/06/19 02:40:40;;;;;;;10.70;9.70;;;20.20;99.90;;;;;;5015178;28;20202;-53
2023/06/19 02:43:06;;;;;;;10.73;9.63;;;20.20;99.90;;;;;;5015460;28;20418;-53
2023/06/19 02:45:31;;;;;;;11.93;10.67;;;20.20;99.90;;;;;;5015469;28;20190;-53
2023/06/19 02:47:57;;;;;;;11.03;9.40;;;20.30;99.90;;;;;;5015426;28;20305;-53
2023/06/19 02:50:22;;;;;;;11.63;10.47;;;20.30;99.90;;;;;;5015375;28;20650;-52
2023/06/19 02:52:48;;;;;;;11.30;9.90;;;20.30;99.90;;;;;;5014511;28;20297;-52
2023/06/19 02:55:14;;;;;;;13.17;10.60;;;20.30;99.90;;;;;;5015103;28;20187;-52
2023/06/19 02:57:39;;;;;;;12.30;9.20;;;20.30;99.90;;;;;;5014869;28;20199;-52
2023/06/19 03:00:05;;;;;;;13.77;10.70;;;20.30;99.90;;;;;;5014899;28;20543;-52
2023/06/19 03:02:32;;;;;;;11.90;10.63;;;20.30;99.90;;;;;;5015246;28;20218;-52
2023/06/19 03:04:57;;;;;;;11.77;10.57;;;20.20;99.90;;;;;;5014953;28;20434;-52
2023/06/19 03:07:25;;;;;;;11.60;9.90;;;20.10;99.90;;;;;;5015011;28;20215;-52
2023/06/19 03:09:50;;;;;;;11.77;10.60;;;20.20;99.90;;;;;;5014978;28;20206;-53
2023/06/19 03:12:16;;;;;;;11.73;10.63;;;20.20;99.90;;;;;;5014522;28;20421;-52
2023/06/19 03:14:41;;;;;;;11.43;10.00;;;20.10;99.90;;;;;;5014654;28;20187;-53
2023/06/19 03:17:07;;;;;;;11.03;9.93;;;20.00;99.90;;;;;;5014737;28;20567;-53
2023/06/19 03:19:32;;;;;;;12.63;11.33;;;20.00;99.90;;;;;;5014696;28;20182;-52
2023/06/19 03:21:58;;;;;;;10.90;9.43;;;20.00;99.90;;;;;;5014987;28;20287;-52
2023/06/19 03:24:23;;;;;;;14.73;10.77;;;20.00;99.90;;;;;;5014643;28;20503;-52
2023/06/19 03:26:49;;;;;;;11.77;10.57;;;20.10;99.90;;;;;;5014407;28;20222;-52
2023/06/19 03:29:15;;;;;;;11.10;10.07;;;20.00;99.90;;;;;;5014333;28;20187;-52
2023/06/19 03:31:40;;;;;;;13.10;10.70;;;20.10;99.90;;;;;;5013232;28;20262;-52
2023/06/19 03:34:06;;;;;;;15.37;11.13;;;20.10;99.90;;;;;;5013878;28;20701;-52
2023/06/19 03:36:31;;;;;;;11.37;10.27;;;20.10;99.90;;;;;;5014331;28;20218;-51
2023/06/19 03:38:57;;;;;;;15.13;10.70;;;20.10;99.90;;;;;;5014282;28;20187;-52
2023/06/19 03:41:23;;;;;;;13.60;12.10;;;20.10;99.90;;;;;;5014203;28;20237;-52
2023/06/19 03:43:48;;;;;;;12.07;10.87;;;20.20;99.90;;;;;;5014263;28;20418;-52
2023/06/19 03:46:14;;;;;;;11.13;9.97;;;20.10;99.90;;;;;;5014271;28;20607;-52
2023/06/19 03:48:40;;;;;;;14.37;11.00;;;20.10;99.90;;;;;;5013792;28;20190;-52
2023/06/19 03:51:05;;;;;;;11.97;10.77;;;20.10;99.90;;;;;;5014042;28;20187;-52
2023/06/19 03:53:31;;;;;;;13.17;10.60;;;20.10;99.90;;;;;;5013927;28;20741;-52
2023/06/19 03:55:56;;;;;;;11.60;10.43;;;20.10;99.90;;;;;;5013979;28;20211;-52
2023/06/19 03:58:22;;;;;;;17.10;10.63;;;20.10;99.90;;;;;;5013857;28;20183;-52
2023/06/19 04:00:48;;;;;;;12.43;11.20;;;20.10;99.90;;;;;;5013841;28;20184;-52
2023/06/19 04:03:13;;;;;;;12.87;10.67;;;20.10;99.90;;;;;;5013700;28;20178;-52
2023/06/19 04:05:41;;;;;;;12.83;11.00;;;20.10;99.90;;;;;;5013774;28;20214;-52
2023/06/19 04:08:07;;;;;;;11.80;10.60;;;20.10;99.90;;;;;;5013403;28;20226;-52
2023/06/19 04:10:32;;;;;;;13.23;10.90;;;20.10;99.90;;;;;;5013486;28;20424;-52
2023/06/19 04:12:58;;;;;;;13.10;11.30;;;20.10;99.90;;;;;;5013570;28;20636;-53
2023/06/19 04:15:23;;;;;;;12.33;10.97;;;20.10;99.90;;;;;;5013250;28;20256;-52
2023/06/19 04:17:49;;;;;;;12.10;10.93;;;20.00;99.90;;;;;;5013389;28;20194;-53
2023/06/19 04:20:15;;;;;;;13.37;11.10;;;20.00;99.90;;;;;;5013630;28;20182;-53
2023/06/19 04:22:41;;;;;;;12.33;11.03;;;20.00;99.90;;;;;;5013664;28;20633;-52
2023/06/19 04:25:08;;;;;;;12.30;11.00;;;19.90;99.90;;;;;;5013545;28;20184;-53
2023/06/19 04:27:34;;;;;;;13.23;11.83;;;19.90;99.90;;;;;;5013424;28;20540;-52
2023/06/19 04:30:00;;;;;;;12.83;11.53;;;19.90;99.90;;;;;;5013391;28;20914;-53
2023/06/19 04:32:26;;;;;;;13.93;11.20;;;19.90;99.90;;;;;;5012966;28;20246;-53
2023/06/19 04:34:51;;;;;;;12.17;10.90;;;20.00;99.90;;;;;;5013083;28;20426;-53
2023/06/19 04:37:19;;;;;;;15.47;11.20;;;20.00;99.90;;;;;;5013224;28;20596;-52
2023/06/19 04:39:45;;;;;;;13.60;10.90;;;20.00;99.90;;;;;;5013180;28;20218;-52
2023/06/19 04:42:20;;;;;;;13.00;11.70;;;20.00;99.90;;;;;;5013044;28;20747;-52
2023/06/19 04:44:47;;;;;;;12.93;11.47;;;19.90;99.90;;;;;;5012820;28;20766;-53
2023/06/19 04:47:13;;;;;;;19.30;11.93;;;20.00;99.90;;;;;;5013042;28;20497;-52
2023/06/19 04:49:38;;;;;;;14.73;11.83;;;20.10;99.90;;;;;;5012856;28;20914;-52
2023/06/19 04:52:04;;;;;;;13.70;12.40;;;20.10;99.90;;;;;;5012315;28;20507;-52
2023/06/19 04:54:32;;;;;;;12.97;11.67;;;20.10;99.90;;;;;;5013408;28;20655;-53
2023/06/19 04:56:58;;;;;;;16.40;11.87;;;20.10;99.90;;;;;;5013045;28;20193;-52
2023/06/19 04:59:23;;;;;;;15.03;12.33;;;20.20;99.90;;;;;;5012630;28;20792;-52
2023/06/19 05:01:49;;;;;;;13.60;11.90;;;20.30;99.90;;;;;;5012768;28;20220;-53
2023/06/19 05:04:15;;;;;;;12.97;11.67;;;20.40;99.90;;;;;;5012972;28;20533;-52
2023/06/19 05:06:40;;;;;;;13.07;11.60;;;20.40;99.90;;;;;;5012642;28;20222;-52
2023/06/19 05:09:06;;;;;;;16.27;12.10;;;20.40;99.90;;;;;;5012494;28;20636;-52
2023/06/19 05:11:32;;;;;;;13.03;11.70;;;20.40;99.90;;;;;;5012947;28;20211;-53
2023/06/19 05:13:58;;;;;;;15.27;11.97;;;20.50;99.90;;;;;;5012820;28;20457;-52
2023/06/19 05:16:24;;;;;;;14.17;11.63;;;20.50;99.90;;;;;;5012769;28;20211;-52
2023/06/19 05:18:51;;;;;;;13.73;12.30;;;20.40;99.90;;;;;;5012457;28;20643;-52
2023/06/19 05:21:17;;;;;;;14.23;12.10;;;20.50;99.90;;;;;;5012677;28;20466;-53
2023/06/19 05:23:42;;;;;;;13.57;11.80;;;20.50;99.90;;;;;;5012512;28;20507;-53
2023/06/19 05:26:08;;;;;;;13.00;11.70;;;20.50;99.90;;;;;;5012239;28;20655;-52
2023/06/19 05:28:34;;;;;;;13.23;11.83;;;20.50;99.90;;;;;;5012494;28;20194;-52
2023/06/19 05:30:59;;;;;;;15.43;11.30;;;20.40;99.90;;;;;;5012682;28;20183;-53
2023/06/19 05:33:25;;;;;;;16.50;11.40;;;20.40;99.90;;;;;;5012238;28;20520;-53
2023/06/19 05:35:53;;;;;;;12.47;11.27;;;20.40;99.90;;;;;;5012396;28;20186;-52
2023/06/19 05:38:19;;;;;;;13.50;12.10;;;20.40;99.90;;;;;;5012044;28;20575;-52
2023/06/19 05:40:45;;;;;;;14.03;11.13;;;20.40;99.90;;;;;;5012588;28;20427;-52
2023/06/19 05:43:10;;;;;;;15.67;11.70;;;20.40;99.90;;;;;;5011945;28;20520;-53
2023/06/19 05:45:36;;;;;;;12.73;11.43;;;20.40;99.90;;;;;;5011942;28;20183;-52
2023/06/19 05:48:01;;;;;;;14.63;11.63;;;20.40;99.90;;;;;;5012322;28;20298;-53
2023/06/19 05:50:27;;;;;;;14.70;11.97;;;20.50;99.90;;;;;;5012300;28;20636;-52
2023/06/19 05:52:53;;;;;;;13.37;12.00;;;20.50;99.90;;;;;;5011927;28;20236;-53
2023/06/19 05:55:18;;;;;;;14.60;11.97;;;20.60;99.90;;;;;;5013380;28;20197;-52
2023/06/19 05:57:44;;;;;;;14.40;12.03;;;20.70;99.90;;;;;;5015791;28;20192;-53
2023/06/19 06:00:16;;;;;;;14.97;12.77;;;20.80;99.90;;;;;;5016191;28;20183;-52
2023/06/19 06:02:41;;;;;;;17.27;12.03;;;20.90;99.90;;;;;;5016110;28;20183;-52
2023/06/19 06:05:08;;;;;;;15.27;12.27;;;21.00;99.90;;;;;;5016105;28;20422;-52
2023/06/19 06:07:34;;;;;;;15.83;12.10;;;21.10;99.90;;;;;;5015832;28;20210;-52
2023/06/19 06:10:00;;;;;;;14.03;12.47;;;21.20;99.90;;;;;;5016139;28;20968;-52
2023/06/19 06:12:25;;;;;;;17.93;12.40;;;21.20;99.90;;;;;;5016208;28;20187;-52
2023/06/19 06:14:51;;;;;;;25.30;13.27;;;21.30;99.90;;;;;;5015889;28;20704;-53
2023/06/19 06:17:17;;;;;;;16.87;13.03;;;21.30;99.90;;;;;;5015466;28;20236;-52
2023/06/19 06:19:42;;;;;;;14.70;12.50;;;21.30;99.90;;;;;;5015493;28;20187;-53
2023/06/19 06:22:08;;;;;;;15.50;14.00;;;21.30;99.90;;;;;;5015733;28;20184;-53
2023/06/19 06:24:33;;;;;;;19.13;14.20;;;21.20;99.90;;;;;;5015721;28;20257;-53
2023/06/19 06:26:59;;;;;;;16.40;14.13;;;21.00;99.90;;;;;;5015771;28;20212;-53
2023/06/19 06:29:25;;;;;;;17.10;14.20;;;21.00;99.90;;;;;;5015607;28;20305;-53
2023/06/19 06:31:52;;;;;;;15.40;13.90;;;20.90;99.90;;;;;;5015409;28;20221;-53
2023/06/19 06:34:19;;;;;;;16.13;14.13;;;20.80;99.90;;;;;;5015686;28;20191;-53
2023/06/19 06:36:45;;;;;;;21.60;13.10;;;20.80;99.90;;;;;;5015470;28;20422;-53
2023/06/19 06:39:11;;;;;;;15.20;13.60;;;20.80;99.90;;;;;;5015154;28;20571;-53
2023/06/19 06:41:37;;;;;;;15.20;13.60;;;20.80;99.90;;;;;;5015082;28;20438;-53
2023/06/19 06:44:02;;;;;;;24.00;12.90;;;20.90;99.90;;;;;;5015380;28;20186;-53
2023/06/19 06:46:28;;;;;;;21.83;14.30;;;20.90;99.90;;;;;;5015455;28;20476;-53
2023/06/19 06:48:54;;;;;;;18.10;13.87;;;20.80;99.90;;;;;;5014909;28;20644;-53
2023/06/19 06:51:19;;;;;;;16.83;14.30;;;20.90;1.00;;;;;;5030151;28;20241;-53
2023/06/19 06:53:45;;;;;;;16.03;14.27;;;20.80;1.00;;;;;;5015447;28;20243;-53
2023/06/19 06:56:10;;;;;;;16.93;15.23;;;20.80;1.00;;;;;;5013794;28;20180;-53
2023/06/19 06:58:36;;;;;;;15.50;13.87;;;20.70;1.00;;;;;;5015208;28;20624;-52
2023/06/19 07:01:02;;;;;;;17.50;14.40;;;20.70;1.00;;;;;;5015334;28;20185;-52
2023/06/19 07:03:31;;;;;;;15.00;13.40;;;20.80;1.00;;;;;;5015107;28;20321;-52
2023/06/19 07:05:57;;;;;;;19.90;15.30;;;20.90;1.00;;;;;;5014749;28;20183;-52
2023/06/19 07:08:22;;;;;;;14.77;13.20;;;21.00;1.00;;;;;;5014695;28;20981;-52
2023/06/19 07:10:48;;;;;;;16.00;13.50;;;21.10;1.00;;;;;;5014740;28;20524;-52
2023/06/19 07:13:13;;;;;;;17.80;14.83;;;21.10;1.00;;;;;;5015057;28;20210;-52
2023/06/19 07:15:39;;;;;;;14.97;13.47;;;21.20;1.00;;;;;;5014749;28;20183;-52
2023/06/19 07:18:05;;;;;;;19.03;14.73;;;21.20;1.00;;;;;;5014973;28;20271;-52
2023/06/19 07:20:30;;;;;;;14.53;12.93;;;21.20;99.90;;;;;;5014853;28;20596;-52
2023/06/19 07:22:56;;;;;;;18.77;14.83;;;21.20;99.90;;;;;;5014364;28;20185;-52
2023/06/19 07:25:25;;;;;;;16.63;14.80;;;21.20;1.00;;;;;;5014343;28;20237;-52
2023/06/19 07:27:50;;;;;;;18.37;14.83;;;21.20;1.00;;;;;;5014394;28;20228;-53
2023/06/19 07:30:17;;;;;;;15.43;13.83;;;21.20;99.90;;;;;;5014361;28;20508;-52
2023/06/19 07:32:42;;;;;;;17.40;15.47;;;21.30;1.00;;;;;;5014298;28;20621;-52
2023/06/19 07:35:08;;;;;;;16.97;15.03;;;21.40;1.00;;;;;;5014098;28;20429;-53
2023/06/19 07:37:34;;;;;;;19.40;15.00;;;21.50;99.90;;;;;;5014464;28;20240;-53
2023/06/19 07:39:59;;;;;;;19.37;14.70;;;21.50;99.90;;;;;;5014258;28;20421;-52
2023/06/19 07:42:26;;;;;;;22.00;15.70;;;21.60;99.90;;;;;;5014443;28;20182;-52
2023/06/19 07:44:51;;;;;;;15.60;13.97;;;21.70;99.90;;;;;;5013764;28;20192;-53
2023/06/19 07:47:18;;;;;;;18.50;14.03;;;21.80;99.90;;;;;;5013950;28;20470;-53
2023/06/19 07:49:44;;;;;;;17.67;13.90;;;22.00;99.90;;;;;;5013882;28;20195;-53
2023/06/19 07:52:10;;;;;;;19.70;14.60;;;22.10;99.90;;;;;;5013442;28;20804;-53
2023/06/19 07:54:36;;;;;;;15.33;13.73;;;22.30;99.90;;;;;;5013764;28;20487;-53
2023/06/19 07:57:02;;;;;;;15.37;13.83;;;22.50;99.90;;;;;;5014346;28;20286;-53
2023/06/19 07:59:28;;;;;;;14.90;13.30;;;22.60;99.90;;;;;;5013914;28;20495;-53
2023/06/19 08:01:53;;;;;;;14.33;12.83;;;22.80;99.90;;;;;;5013778;28;20498;-53
2023/06/19 08:04:19;;;;;;;15.40;13.37;;;23.10;99.90;;;;;;5013476;28;20185;-53
2023/06/19 08:06:44;;;;;;;15.20;13.60;;;23.40;99.90;;;;;;5013546;28;20224;-53
2023/06/19 08:09:10;;;;;;;16.10;14.40;;;23.70;99.90;;;;;;5013486;28;20268;-53
2023/06/19 08:11:37;;;;;;;17.53;15.50;;;24.00;99.90;;;;;;5014245;28;20498;-53
2023/06/19 08:14:02;;;;;;;15.60;13.90;;;24.10;99.90;;;;;;5014048;28;20339;-52
2023/06/19 08:16:28;;;;;;;19.50;14.17;;;24.00;99.90;;;;;;5013838;28;20981;-53
2023/06/19 08:18:54;;;;;;;15.83;14.23;;;24.20;99.90;;;;;;5012669;28;20542;-53
2023/06/19 08:21:21;;;;;;;15.20;13.60;;;24.80;99.90;;;;;;5013342;28;20639;-53
2023/06/19 08:23:47;;;;;;;15.50;13.60;;;25.30;99.90;;;;;;5012991;28;20651;-53
2023/06/19 08:26:12;;;;;;;14.80;13.40;;;25.40;99.90;;;;;;5012842;28;20422;-51
2023/06/19 08:28:38;;;;;;;15.67;13.80;;;25.40;99.90;;;;;;5012631;28;20643;-51
2023/06/19 08:31:03;;;;;;;17.53;14.20;;;25.20;99.90;;;;;;5013467;28;20221;-51
2023/06/19 08:33:30;;;;;;;16.37;13.73;;;25.10;99.90;;;;;;5012829;28;20215;-51
2023/06/19 08:35:55;;;;;;;15.60;14.07;;;25.20;99.90;;;;;;5012800;28;20206;-51
2023/06/19 08:38:21;;;;;;;16.87;14.03;;;25.60;99.90;;;;;;5013228;28;20504;-51
2023/06/19 08:40:46;;;;;;;17.77;13.63;;;26.20;99.90;;;;;;5012875;28;20187;-51
2023/06/19 08:43:12;;;;;;;15.27;13.67;;;27.00;99.90;;;;;;5012883;28;20497;-51
2023/06/19 08:45:38;;;;;;;18.47;14.17;;;27.80;99.90;;;;;;5012585;28;20207;-51
2023/06/19 08:48:04;;;;;;;16.40;12.97;;;28.30;99.90;;;;;;5012510;28;20224;-51
2023/06/19 08:50:30;;;;;;;19.20;13.70;;;28.90;99.90;;;;;;5012718;28;20621;-51
2023/06/19 08:52:56;;;;;;;13.87;12.57;;;29.10;99.90;;;;;;5011962;28;20513;-51
2023/06/19 08:55:22;;;;;;;21.00;12.90;;;29.10;99.90;;;;;;5012722;28;20415;-51
2023/06/19 08:57:49;;;;;;;15.40;13.80;;;29.10;99.90;;;;;;5012521;28;20449;-51
2023/06/19 09:00:25;;;;;;;14.13;12.83;;;29.60;99.90;;;;;;5012525;28;20749;-51
2023/06/19 09:02:50;;;;;;;20.87;13.87;;;30.00;99.90;;;;;;5012479;28;20441;-51
2023/06/19 09:05:18;;;;;;;15.30;13.60;;;29.70;99.90;;;;;;5012093;28;20439;-50
2023/06/19 09:07:53;;;;;;;14.93;13.40;;;29.00;99.90;;;;;;5011959;28;20678;-51
2023/06/19 09:10:19;;;;;;;15.43;13.17;;;28.80;99.90;;;;;;5012091;28;20887;-52
2023/06/19 09:12:59;;;;;;;14.37;13.07;;;29.00;99.90;;;;;;5012422;28;20470;-51
2023/06/19 09:15:27;;;;;;;15.80;13.70;;;29.40;99.90;;;;;;5012337;28;20415;-51
2023/06/19 09:18:09;;;;;;;14.43;12.93;;;29.90;99.90;;;;;;5012267;28;20470;-51
2023/06/19 09:20:38;;;;;;;14.10;12.67;;;29.80;99.90;;;;;;5012274;28;20519;-51
2023/06/19 09:23:04;;;;;;;22.40;12.53;;;29.80;99.90;;;;;;5012558;28;20411;-52
2023/06/19 09:25:30;;;;;;;14.97;13.03;;;30.00;99.90;;;;;;5012078;28;20779;-51
2023/06/19 09:27:56;;;;;;;13.80;12.40;;;30.10;99.90;;;;;;5012027;28;20259;-51
2023/06/19 09:30:22;;;;;;;15.63;12.77;;;29.90;99.90;;;;;;5012229;28;20191;-51
2023/06/19 09:32:49;;;;;;;14.77;13.30;;;29.50;99.90;;;;;;5012054;28;20419;-51
2023/06/19 09:35:14;;;;;;;14.43;12.73;;;29.20;99.90;;;;;;5012057;28;20419;-51
2023/06/19 09:37:40;;;;;;;14.67;12.10;;;29.00;99.90;;;;;;5012138;28;20828;-51
2023/06/19 09:40:10;;;;;;;15.43;13.80;;;29.10;99.90;;;;;;5012090;28;20184;-51
2023/06/19 09:42:37;;;;;;;21.17;14.30;;;29.30;99.90;;;;;;5012293;28;20415;-51
2023/06/19 09:45:08;;;;;;;15.30;13.70;;;29.00;99.90;;;;;;5011875;28;20423;-51
2023/06/19 09:47:42;;;;;;;17.23;13.83;;;28.60;99.90;;;;;;5011841;28;20454;-51
2023/06/19 09:50:08;;;;;;;14.90;12.60;;;28.50;99.90;;;;;;5011724;28;20506;-51
2023/06/19 09:52:34;;;;;;;16.23;14.00;;;28.40;99.90;;;;;;5011936;28;20482;-51
2023/06/19 09:55:04;;;;;;;16.60;14.90;;;28.40;99.90;;;;;;5011740;28;20778;-51
2023/06/19 09:57:30;;;;;;;14.70;13.33;;;28.30;99.90;;;;;;5011908;28;20439;-51
2023/06/19 09:59:57;;;;;;;14.13;12.73;;;28.20;99.90;;;;;;5011871;28;20411;-51
2023/06/19 10:02:27;;;;;;;16.17;13.50;;;28.20;99.90;;;;;;5010079;28;20426;-51
2023/06/19 10:04:55;;;;;;;13.57;12.27;;;28.30;99.90;;;;;;5011473;28;20419;-51
2023/06/19 10:07:33;;;;;;;15.53;14.13;;;28.50;99.90;;;;;;5011419;28;20510;-51
2023/06/19 10:10:00;;;;;;;16.40;14.70;;;28.60;99.90;;;;;;5011924;28;20490;-51
2023/06/19 10:12:39;;;;;;;16.10;14.50;;;29.10;99.90;;;;;;5011810;28;20987;-51
2023/06/19 10:15:17;;;;;;;14.70;13.40;;;29.70;99.90;;;;;;5011929;28;20477;-52
2023/06/19 10:17:51;;;;;;;16.00;14.30;;;30.20;99.90;;;;;;5011100;28;20989;-51
2023/06/19 10:20:21;;;;;;;16.40;13.83;;;30.50;99.90;;;;;;5011414;28;20407;-51
2023/06/19 10:23:17;;;;;;;15.13;13.83;;;30.70;99.90;;;;;;5011075;28;20519;-51
2023/06/19 10:25:47;;;;;;;16.40;13.60;;;31.10;99.90;;;;;;5010868;28;20435;-51
2023/06/19 10:28:33;;;;;;;17.13;14.40;;;30.90;99.90;;;;;;5011237;28;20989;-51
2023/06/19 10:31:04;;;;;;;16.50;14.17;;;30.10;99.90;;;;;;5011359;28;20911;-51
2023/06/19 10:33:32;;;;;;;15.60;13.50;;;29.80;99.90;;;;;;5011526;28;20400;-52
2023/06/19 10:35:59;;;;;;;18.33;13.20;;;30.00;99.90;;;;;;5010940;28;21455;-52
2023/06/19 10:38:25;;;;;;;14.90;12.77;;;30.40;99.90;;;;;;5011252;28;20423;-51
2023/06/19 10:40:51;;;;;;;13.77;12.33;;;31.10;99.90;;;;;;5011900;28;20429;-52
2023/06/19 10:43:27;;;;;;;15.23;13.00;;;31.90;99.90;;;;;;5014588;28;20184;-52
2023/06/19 10:45:53;;;;;;;14.03;12.83;;;32.50;99.90;;;;;;5014932;28;20271;-52
2023/06/19 10:48:24;;;;;;;14.20;12.93;;;32.80;99.90;;;;;;5014647;28;20478;-52
2023/06/19 10:50:50;;;;;;;13.80;12.40;;;32.70;99.90;;;;;;5014960;28;20477;-52
2023/06/19 10:53:32;;;;;;;14.87;13.23;;;32.80;99.90;;;;;;5014584;28;20474;-52
2023/06/19 10:55:58;;;;;;;16.40;12.67;;;32.80;99.90;;;;;;5014757;28;20494;-52
2023/06/19 10:58:25;;;;;;;15.10;13.70;;;32.50;99.90;;;;;;5014577;28;20837;-52
2023/06/19 11:00:52;;;;;;;13.53;12.33;;;32.00;99.90;;;;;;5014547;28;21112;-52
2023/06/19 11:03:19;;;;;;;13.37;11.87;;;32.10;99.90;;;;;;5014808;28;20469;-52
2023/06/19 11:05:45;;;;;;;21.83;11.90;;;32.60;99.90;;;;;;5014284;28;20651;-53
2023/06/19 11:08:17;;;;;;;13.00;11.70;;;33.10;99.90;;;;;;5014326;28;20463;-52
2023/06/19 11:10:42;;;;;;;11.87;10.67;;;33.70;99.90;;;;;;5014762;28;20400;-52
2023/06/19 11:13:14;;;;;;;12.13;10.90;;;34.10;99.90;;;;;;5014661;28;20423;-52
2023/06/19 11:15:40;;;;;;;11.43;10.30;;;33.70;99.90;;;;;;5014577;28;20172;-51
2023/06/19 11:18:05;;;;;;;12.73;9.67;;;33.40;99.90;;;;;;5014836;28;20950;-52
2023/06/19 11:20:43;;;;;;;16.23;10.37;;;33.40;99.90;;;;;;5014199;28;20184;-52
2023/06/19 11:23:09;;;;;;;10.50;9.47;;;33.60;99.90;;;;;;5014329;28;20177;-52
2023/06/19 11:25:39;;;;;;;9.70;8.90;;;33.70;99.90;;;;;;5014668;28;20423;-53
2023/06/19 11:28:17;;;;;;;9.37;8.47;;;33.60;99.90;;;;;;5014728;28;20569;-53
2023/06/19 11:30:43;;;;;;;10.03;8.50;;;33.80;99.90;;;;;;5014291;28;20408;-52
2023/06/19 11:33:22;;;;;;;11.33;8.23;;;33.90;99.90;;;;;;5014166;28;20419;-53
2023/06/19 11:35:52;;;;;;;10.03;9.20;;;34.10;99.90;;;;;;5014130;28;20259;-52
2023/06/19 11:38:20;;;;;;;9.90;9.00;;;34.30;99.90;;;;;;5014036;28;20829;-52
2023/06/19 11:40:46;;;;;;;9.70;8.80;;;34.50;99.90;;;;;;5013776;28;20419;-53
2023/06/19 11:43:11;;;;;;;8.70;8.00;;;34.80;99.90;;;;;;5013714;28;20415;-53
2023/06/19 11:45:51;;;;;;;11.47;9.23;;;35.40;99.90;;;;;;5014440;28;20268;-54
2023/06/19 11:48:26;;;;;;;9.30;8.40;;;35.80;99.90;;;;;;5014063;28;20269;-53
2023/06/19 11:50:53;;;;;;;12.83;8.70;;;34.90;99.90;;;;;;5013127;28;20914;-53
2023/06/19 11:53:23;;;;;;;9.03;8.03;;;33.60;99.90;;;;;;5012898;28;20442;-53
2023/06/19 11:55:49;;;;;;;9.83;8.93;;;32.70;99.90;;;;;;5013599;28;20462;-53
2023/06/19 11:58:19;;;;;;;10.10;9.10;;;32.30;99.90;;;;;;5013670;28;20430;-52
2023/06/19 12:00:45;;;;;;;9.30;8.40;;;32.20;99.90;;;;;;5013821;28;20408;-53
2023/06/19 12:03:11;;;;;;;9.43;8.30;;;32.80;99.90;;;;;;5013536;28;20430;-52
2023/06/19 12:05:37;;;;;;;9.53;8.63;;;32.80;99.90;;;;;;5014100;28;20305;-53
2023/06/19 12:08:04;;;;;;;9.10;8.30;;;32.00;99.90;;;;;;5013672;28;20512;-53
2023/06/19 12:10:30;;;;;;;9.27;8.40;;;31.30;99.90;;;;;;5013335;28;20420;-52
2023/06/19 12:12:55;;;;;;;9.70;8.90;;;30.70;99.90;;;;;;5013250;28;20918;-53
2023/06/19 12:15:21;;;;;;;8.83;7.93;;;30.10;99.90;;;;;;5013396;28;20423;-52
2023/06/19 12:17:48;;;;;;;9.30;8.50;;;29.70;99.90;;;;;;5013074;28;20315;-52
2023/06/19 12:20:14;;;;;;;9.20;8.33;;;29.60;99.90;;;;;;5013094;28;20226;-53
2023/06/19 12:22:40;;;;;;;9.90;8.90;;;29.80;99.90;;;;;;5013394;28;20447;-52
2023/06/19 12:25:05;;;;;;;13.07;8.47;;;30.00;99.90;;;;;;5013731;28;20191;-52
2023/06/19 12:27:31;;;;;;;9.57;8.27;;;30.20;99.90;;;;;;5012931;28;20939;-52
2023/06/19 12:29:57;;;;;;;9.17;8.37;;;30.20;99.90;;;;;;5013085;28;20184;-53
2023/06/19 12:32:22;;;;;;;11.40;7.90;;;30.00;99.90;;;;;;5012778;28;20271;-52